Cottonwood, Minnesota
Current Conditions -  °F | °C
As of 10:32 PM on Saturday 20 Dec 2014 (Local Time) from KGDB Reporting Station
Overcast Overcast  
Wind Chill: 22°   Ceiling: 900
Heat Index: 31°   Visibility: 7mi
Dew Point: 29°   Wind: 13mph
Humidity: 92%   Direction: 150°SSE
Pressure: 30"   Gusts: 20mph
Location:  44.61°N, 95.67°W
Report Text: KGDB 210432Z AUTO 15011G17KT 7SM OVC009 00/M02 A3000 RMK AO2 T10041016
Loading
Personal Weather Stations






























Interactive Weather Map New forecast layout! Learn more

10-Day Weather Forecast

Advertisements
Track Severe Weather on mobile